createdAt,value
2022-09-03T05:03:37.412Z,1.40
2022-09-03T05:08:41.258Z,3.10
2022-09-03T05:13:45.223Z,4.87
2022-09-03T05:18:52.916Z,12.20
2022-09-03T05:23:56.509Z,8.07
2022-09-03T05:29:01.886Z,6.50
2022-09-03T05:34:07.721Z,7.80
2022-09-03T05:39:11.319Z,7.35
2022-09-03T05:44:15.167Z,6.82
2022-09-03T05:49:20.050Z,9.70
2022-09-03T05:54:23.584Z,13.00
2022-09-03T05:59:27.194Z,7.97
2022-09-03T06:04:32.960Z,9.63
2022-09-03T06:09:36.920Z,9.23
2022-09-03T06:14:40.460Z,9.85
2022-09-03T06:19:45.372Z,6.75
2022-09-03T06:24:48.885Z,9.82
2022-09-03T06:29:52.431Z,8.63
2022-09-03T06:34:57.330Z,10.97
2022-09-03T06:40:00.905Z,11.35
2022-09-03T06:45:04.937Z,13.97
2022-09-03T06:50:15.773Z,13.07
2022-09-03T06:55:19.334Z,14.30
2022-09-03T07:00:23.396Z,19.70
2022-09-03T07:05:29.040Z,15.88
2022-09-03T07:10:34.963Z,14.82
2022-09-03T07:15:38.564Z,18.33
2022-09-03T07:20:43.471Z,23.77
2022-09-03T07:25:54.704Z,13.15
2022-09-03T07:31:04.045Z,14.77
2022-09-03T07:36:11.286Z,14.80
2022-09-03T07:41:28.334Z,12.35
2022-09-03T07:46:33.921Z,19.08
2022-09-03T07:51:40.056Z,12.40
2022-09-03T07:56:43.598Z,11.95
2022-09-03T08:01:47.242Z,8.80
2022-09-03T08:06:55.646Z,10.87
2022-09-03T08:11:59.433Z,10.18
2022-09-03T08:17:03.028Z,11.10
2022-09-03T08:22:08.055Z,11.27
2022-09-03T08:27:11.602Z,13.18
2022-09-03T08:32:15.151Z,21.02
2022-09-03T08:37:20.254Z,12.10
2022-09-03T08:42:31.734Z,11.57
2022-09-03T08:47:39.073Z,8.88
2022-09-03T08:52:49.084Z,10.20
2022-09-03T08:57:57.671Z,9.77
2022-09-03T09:03:17.167Z,8.70
2022-09-03T09:08:30.555Z,8.77
2022-09-03T09:13:41.644Z,8.05
2022-09-03T09:18:57.680Z,9.50
2022-09-03T09:24:05.918Z,9.73
2022-09-03T09:29:12.561Z,12.63
2022-09-03T09:34:16.988Z,8.02
2022-09-03T09:39:22.633Z,5.87
2022-09-03T09:44:28.028Z,5.25
2022-09-03T09:49:34.120Z,4.55
2022-09-03T09:54:40.056Z,4.18
2022-09-03T09:59:43.586Z,4.03
2022-09-03T10:04:47.337Z,3.77
2022-09-03T10:10:02.540Z,4.47
2022-09-03T10:15:18.578Z,13.18
2022-09-03T10:20:31.266Z,3.97
2022-09-03T10:25:50.320Z,8.38
2022-09-03T10:31:04.369Z,5.35
2022-09-03T10:36:19.237Z,6.85
2022-09-03T10:41:39.215Z,1.85
2022-09-03T10:46:50.746Z,3.12
2022-09-03T10:52:05.108Z,2.78
2022-09-03T10:57:19.697Z,2.55
2022-09-03T11:07:38.860Z,1.17
2022-09-03T11:12:48.166Z,1.73
2022-09-03T11:18:00.966Z,4.12
2022-09-03T11:23:07.150Z,2.28
2022-09-03T11:28:28.485Z,1.55
2022-09-03T11:33:50.678Z,1.95
2022-09-03T11:39:16.883Z,4.05
2022-09-03T11:44:24.973Z,3.80
2022-09-03T11:49:31.055Z,1.87
2022-09-03T11:54:44.594Z,1.55
2022-09-03T11:59:50.228Z,2.50
2022-09-03T12:05:09.802Z,2.58
2022-09-03T12:10:34.829Z,2.30
2022-09-03T12:16:10.606Z,0.90
2022-09-03T12:21:14.571Z,0.98
2022-09-03T12:26:20.556Z,1.80
2022-09-03T12:31:30.688Z,1.20
2022-09-03T12:36:39.341Z,1.58
2022-09-03T12:41:58.061Z,2.17
2022-09-03T12:52:33.450Z,1.67
2022-09-03T12:57:40.113Z,4.25
2022-09-03T13:02:52.655Z,1.37
2022-09-03T13:07:59.481Z,1.02
2022-09-03T13:13:05.680Z,1.48
2022-09-03T13:18:22.055Z,1.83
2022-09-03T13:23:38.905Z,1.30
2022-09-03T13:28:58.334Z,1.52
2022-09-03T13:34:08.065Z,2.28
2022-09-03T13:39:23.161Z,2.40
2022-09-03T13:44:37.954Z,1.17
2022-09-03T13:50:08.221Z,2.35
2022-09-03T13:55:19.507Z,0.68
2022-09-03T14:00:31.265Z,1.02
2022-09-03T14:05:55.887Z,0.20
2022-09-03T14:16:10.469Z,3.22
2022-09-03T14:21:20.937Z,0.80
2022-09-03T14:26:38.496Z,1.90
2022-09-03T14:32:06.873Z,0.75
2022-09-03T14:37:27.015Z,1.12
2022-09-03T14:42:58.761Z,0.77
2022-09-03T14:48:21.942Z,0.70
2022-09-03T14:53:48.623Z,0.52
2022-09-03T14:59:18.993Z,1.30
2022-09-03T15:04:54.836Z,0.95
2022-09-03T15:10:07.881Z,0.50
2022-09-03T15:15:14.872Z,1.23
2022-09-03T15:20:24.981Z,4.10
2022-09-03T15:25:42.816Z,2.78
2022-09-03T15:30:52.843Z,0.82
2022-09-03T15:36:16.209Z,2.55
2022-09-03T15:41:34.342Z,0.73
2022-09-03T15:46:51.733Z,1.52
2022-09-03T15:52:07.500Z,2.70
2022-09-03T15:57:19.457Z,2.30
2022-09-03T16:02:28.990Z,0.37
2022-09-03T16:07:56.341Z,0.73
2022-09-03T16:13:07.888Z,0.20
2022-09-03T16:18:22.127Z,0.43
2022-09-03T16:23:31.623Z,2.75
2022-09-03T16:28:43.802Z,0.82
2022-09-03T16:33:57.589Z,2.67
2022-09-03T16:39:04.639Z,2.03
2022-09-03T16:44:17.380Z,0.57
2022-09-03T16:49:38.492Z,0.77
2022-09-03T16:54:56.051Z,0.80
2022-09-03T17:00:11.048Z,1.27
2022-09-03T17:05:27.963Z,1.03
2022-09-03T17:10:41.216Z,3.72
2022-09-03T17:15:50.750Z,2.20
2022-09-03T17:21:31.932Z,0.75
2022-09-03T17:26:44.278Z,0.50
2022-09-03T17:31:55.156Z,0.43
2022-09-03T17:37:09.506Z,1.37
2022-09-03T17:42:20.369Z,10.63
2022-09-03T17:48:11.197Z,0.50
2022-09-03T17:53:21.020Z,1.27
2022-09-03T17:58:31.378Z,0.65
2022-09-03T18:03:46.847Z,0.47
2022-09-03T18:08:57.767Z,5.20
2022-09-03T18:14:10.315Z,2.60
2022-09-03T18:19:29.235Z,8.38
2022-09-03T18:24:53.825Z,2.83
2022-09-03T18:30:19.956Z,1.02
2022-09-03T18:35:48.811Z,2.33
2022-09-03T18:41:17.156Z,0.43
2022-09-03T18:52:36.169Z,0.73
2022-09-03T18:58:06.432Z,2.10
2022-09-03T19:03:42.192Z,0.75
2022-09-03T19:09:15.669Z,2.53
2022-09-03T19:14:46.248Z,6.82
2022-09-03T19:20:21.022Z,2.92
2022-09-03T19:25:45.645Z,4.75
2022-09-03T19:31:16.654Z,1.35
2022-09-03T19:36:45.486Z,1.23
2022-09-03T19:42:15.795Z,0.57
2022-09-03T19:47:46.416Z,3.03
2022-09-03T19:53:12.092Z,0.40
2022-09-03T19:58:43.615Z,0.85
2022-09-03T20:04:05.156Z,0.55
2022-09-03T20:09:28.074Z,0.90
2022-09-03T20:14:36.080Z,0.50
2022-09-03T20:19:51.839Z,1.17
2022-09-03T20:25:12.905Z,2.22
2022-09-03T20:30:20.578Z,1.25
2022-09-03T20:35:35.148Z,0.62
2022-09-03T20:40:46.814Z,0.50
2022-09-03T20:46:14.472Z,7.30
2022-09-03T20:51:22.743Z,2.03
2022-09-03T20:56:33.433Z,0.93
2022-09-03T21:01:48.353Z,0.52
2022-09-03T21:06:57.175Z,4.93
2022-09-03T21:12:09.165Z,7.12
2022-09-03T21:17:37.035Z,2.10
2022-09-03T21:22:52.728Z,4.95
2022-09-03T21:28:01.396Z,0.37
2022-09-03T21:33:12.693Z,0.50
2022-09-03T21:38:20.367Z,0.40
2022-09-03T21:43:30.249Z,0.37
2022-09-03T21:48:40.647Z,1.92
2022-09-03T21:53:49.092Z,0.62
2022-09-03T21:59:08.732Z,0.82
2022-09-03T22:04:14.299Z,2.03
2022-09-03T22:09:24.385Z,1.08
2022-09-03T22:14:33.822Z,2.22
2022-09-03T22:19:40.226Z,0.80
